Time;durP1;ratioP1;P1;durP2;ratioP2;P2;SDS_P1;SDS_P2;PMS_P1;PMS_P2;Temp;Humidity;BMP_temperature;BMP_pressure;BME280_temperature;BME280_humidity;BME280_pressure;Samples;Min_cycle;Max_cycle;Signal;HPM_P1;HPM_P2
2022/09/06 00:01:22;;;;;;;5.75;2.53;;;20.40;99.90;;;;;;4951120;29;20479;-77
2022/09/06 00:03:49;;;;;;;4.93;2.70;;;20.40;99.90;;;;;;4935943;29;20043;-77
2022/09/06 00:06:18;;;;;;;4.07;2.60;;;20.40;99.90;;;;;;4952462;28;20544;-77
2022/09/06 00:08:46;;;;;;;5.43;2.50;;;20.30;99.90;;;;;;4952704;29;20093;-77
2022/09/06 00:11:14;;;;;;;6.13;2.63;;;20.30;99.90;;;;;;4952608;28;20090;-77
2022/09/06 00:13:41;;;;;;;5.32;2.67;;;20.30;99.90;;;;;;4956573;29;20142;-77
2022/09/06 00:16:11;;;;;;;5.45;2.90;;;20.20;99.90;;;;;;4956144;28;20141;-77
2022/09/06 00:18:38;;;;;;;;;;;20.20;99.90;;;;;;4956377;29;20497;-77
2022/09/06 00:21:20;;;;;;;5.22;2.53;;;20.20;99.90;;;;;;4956345;29;20403;-77
2022/09/06 00:23:47;;;;;;;6.20;2.70;;;20.20;99.90;;;;;;4956043;29;20055;-76
2022/09/06 00:26:14;;;;;;;17.88;3.40;;;20.20;99.90;;;;;;4956258;28;20062;-77
2022/09/06 00:28:41;;;;;;;6.43;2.45;;;20.20;99.90;;;;;;4955764;29;20425;-77
2022/09/06 00:31:15;;;;;;;6.95;2.75;;;20.20;99.90;;;;;;4955966;29;20055;-77
2022/09/06 00:33:42;;;;;;;5.30;2.78;;;20.20;99.90;;;;;;4954321;29;20050;-76
2022/09/06 00:36:10;;;;;;;4.70;2.78;;;20.20;99.90;;;;;;4955950;28;20469;-77
2022/09/06 00:38:38;;;;;;;6.05;2.67;;;20.20;99.90;;;;;;4938732;29;20090;-77
2022/09/06 00:41:07;;;;;;;7.55;3.45;;;20.20;99.90;;;;;;4938894;29;20051;-76
2022/09/06 00:43:33;;;;;;;7.82;2.67;;;20.20;99.90;;;;;;4955817;29;20127;-77
2022/09/06 00:46:01;;;;;;;3.75;2.50;;;20.20;99.90;;;;;;4955571;28;20051;-76
2022/09/06 00:48:29;;;;;;;7.05;2.80;;;20.20;99.90;;;;;;4955756;29;20051;-77
2022/09/06 00:50:59;;;;;;;9.32;2.80;;;20.10;99.90;;;;;;4938831;29;20055;-77
2022/09/06 00:53:26;;;;;;;;;;;20.10;99.90;;;;;;4956085;29;20086;-77
2022/09/06 00:55:54;;;;;;;7.35;2.38;;;20.10;99.90;;;;;;4955499;28;19923;-76
2022/09/06 00:58:21;;;;;;;4.93;2.85;;;20.10;99.90;;;;;;4955234;29;20142;-77
2022/09/06 01:00:48;;;;;;;4.95;2.60;;;20.10;99.90;;;;;;4938519;29;20051;-77
2022/09/06 01:03:15;;;;;;;6.75;2.78;;;20.10;99.90;;;;;;4955705;29;20047;-77
2022/09/06 01:06:07;;;;;;;6.78;2.60;;;20.10;99.90;;;;;;4955281;28;20055;-76
2022/09/06 01:09:05;;;;;;;7.30;3.13;;;20.00;99.90;;;;;;4954509;29;20055;-77
2022/09/06 01:11:54;;;;;;;6.90;2.83;;;20.00;99.90;;;;;;4955702;29;20407;-76
2022/09/06 01:15:02;;;;;;;5.13;2.63;;;20.10;99.90;;;;;;4955091;28;20086;-76
2022/09/06 01:18:02;;;;;;;3.65;2.38;;;20.10;99.90;;;;;;4954313;29;20489;-76
2022/09/06 01:20:41;;;;;;;5.97;2.25;;;20.10;99.90;;;;;;4954839;29;20047;-77
2022/09/06 01:23:29;;;;;;;9.85;2.40;;;20.10;99.90;;;;;;4954270;28;20130;-76
2022/09/06 01:26:29;;;;;;;9.75;2.47;;;20.20;99.90;;;;;;4955096;28;20133;-77
2022/09/06 01:28:57;;;;;;;4.13;2.15;;;20.20;99.90;;;;;;4954937;29;20094;-77
2022/09/06 01:31:43;;;;;;;7.63;2.42;;;20.20;99.90;;;;;;4954888;29;20589;-76
2022/09/06 01:34:33;;;;;;;7.57;2.45;;;20.30;99.90;;;;;;4955250;29;20086;-77
2022/09/06 01:37:16;;;;;;;5.78;2.47;;;20.30;99.90;;;;;;4955154;29;20074;-77
2022/09/06 01:39:43;;;;;;;8.30;2.28;;;20.40;99.90;;;;;;4954633;29;20061;-77
2022/09/06 01:42:18;;;;;;;6.43;2.38;;;20.40;99.90;;;;;;4953178;29;20050;-76
2022/09/06 01:44:51;;;;;;;5.88;2.53;;;20.40;99.90;;;;;;4954778;28;20450;-77
2022/09/06 01:48:02;;;;;;;4.75;2.13;;;20.50;99.90;;;;;;4952766;29;20452;-77
2022/09/06 01:50:52;;;;;;;9.27;3.38;;;20.50;99.90;;;;;;4918763;29;20051;-77
2022/09/06 01:53:33;;;;;;;9.95;3.08;;;20.50;99.90;;;;;;4954586;29;20130;-76
2022/09/06 01:56:39;;;;;;;6.18;2.30;;;20.60;99.90;;;;;;4953083;28;20090;-77
2022/09/06 01:59:12;;;;;;;6.20;2.33;;;20.60;99.90;;;;;;4954072;29;20470;-77
2022/09/06 02:02:10;;;;;;;10.23;2.70;;;20.60;99.90;;;;;;4954330;29;20091;-76
2022/09/06 02:04:52;;;;;;;11.35;3.00;;;20.60;99.90;;;;;;4954308;28;20051;-77
2022/09/06 02:07:23;;;;;;;6.15;2.63;;;20.60;99.90;;;;;;4953349;29;20057;-77
2022/09/06 02:09:57;;;;;;;7.22;2.20;;;20.70;99.90;;;;;;4954202;29;20424;-77
2022/09/06 02:12:27;;;;;;;9.20;2.65;;;20.70;99.90;;;;;;4953683;29;20087;-76
2022/09/06 02:15:07;;;;;;;11.18;2.65;;;20.70;99.90;;;;;;4954081;28;20077;-76
2022/09/06 02:17:40;;;;;;;7.65;2.20;;;20.70;99.90;;;;;;4954004;29;20502;-76
2022/09/06 02:20:15;;;;;;;5.97;2.55;;;20.70;99.90;;;;;;4954031;29;20086;-77
2022/09/06 02:22:45;;;;;;;9.25;2.22;;;20.70;99.90;;;;;;4951894;29;20064;-77
2022/09/06 02:25:20;;;;;;;6.97;2.38;;;20.70;99.90;;;;;;4954124;28;20048;-77
2022/09/06 02:27:47;;;;;;;6.88;2.33;;;20.70;99.90;;;;;;4954086;29;20051;-77
2022/09/06 02:30:13;;;;;;;7.10;2.78;;;20.70;99.90;;;;;;4954080;29;20082;-77
2022/09/06 02:32:56;;;;;;;6.38;2.42;;;20.70;99.90;;;;;;4953812;29;20082;-77
2022/09/06 02:35:23;;;;;;;7.13;2.20;;;20.70;99.90;;;;;;4936335;29;20141;-77
2022/09/06 02:37:50;;;;;;;10.63;2.53;;;20.70;99.90;;;;;;4954062;29;20047;-77
2022/09/06 02:40:18;;;;;;;8.27;2.38;;;20.70;99.90;;;;;;4950249;29;20051;-77
2022/09/06 02:42:44;;;;;;;8.65;2.58;;;20.80;99.90;;;;;;4953872;29;20484;-77
2022/09/06 02:45:11;;;;;;;7.60;2.45;;;20.90;99.90;;;;;;4953744;28;20047;-76
2022/09/06 02:47:38;;;;;;;10.93;2.72;;;21.00;99.90;;;;;;4953506;29;20085;-77
2022/09/06 02:50:07;;;;;;;9.50;2.95;;;21.00;99.90;;;;;;4951284;29;20101;-77
2022/09/06 02:52:33;;;;;;;8.15;2.50;;;21.10;99.90;;;;;;4953551;29;20449;-76
2022/09/06 02:55:00;;;;;;;9.68;3.03;;;21.10;99.90;;;;;;4953272;28;20078;-77
2022/09/06 02:57:27;;;;;;;10.30;2.50;;;21.10;99.90;;;;;;4953691;29;20134;-76
2022/09/06 02:59:53;;;;;;;13.50;2.85;;;21.20;99.90;;;;;;4953290;29;20086;-77
2022/09/06 03:02:20;;;;;;;14.90;3.08;;;21.20;99.90;;;;;;4953467;29;20134;-76
2022/09/06 03:04:47;;;;;;;8.98;2.20;;;21.30;99.90;;;;;;4953309;28;20074;-77
2022/09/06 03:07:13;;;;;;;10.68;2.90;;;21.30;99.90;;;;;;4953325;29;20138;-77
2022/09/06 03:09:40;;;;;;;8.82;2.38;;;21.30;99.90;;;;;;4952932;29;20055;-78
2022/09/06 03:12:07;;;;;;;8.80;2.33;;;21.40;99.90;;;;;;4953526;29;20055;-77
2022/09/06 03:14:34;;;;;;;8.07;2.55;;;21.40;99.90;;;;;;4953056;28;20079;-77
2022/09/06 03:17:02;;;;;;;9.50;2.08;;;21.40;99.90;;;;;;4952790;29;20535;-77
2022/09/06 03:19:29;;;;;;;8.68;2.35;;;21.50;99.90;;;;;;4948832;28;20043;-76
2022/09/06 03:21:56;;;;;;;10.05;2.85;;;21.50;99.90;;;;;;4952949;29;20501;-77
2022/09/06 03:24:22;;;;;;;9.63;2.35;;;21.50;99.90;;;;;;4953007;28;20138;-76
2022/09/06 03:26:49;;;;;;;16.13;2.60;;;21.60;99.90;;;;;;4953279;29;20085;-77
2022/09/06 03:29:16;;;;;;;11.90;3.05;;;21.50;99.90;;;;;;4953070;29;20489;-77
2022/09/06 03:31:43;;;;;;;11.60;2.42;;;21.60;99.90;;;;;;4951220;29;20051;-76
2022/09/06 03:34:09;;;;;;;13.43;2.80;;;21.60;99.90;;;;;;4953773;29;20149;-77
2022/09/06 03:36:37;;;;;;;15.60;2.97;;;21.50;99.90;;;;;;4936182;29;20057;-75
2022/09/06 03:39:03;;;;;;;10.85;2.63;;;21.50;99.90;;;;;;4951883;29;20473;-77
2022/09/06 03:41:30;;;;;;;8.85;2.50;;;21.50;99.90;;;;;;4953015;29;20047;-76
2022/09/06 03:43:57;;;;;;;9.93;3.22;;;21.50;99.90;;;;;;4953152;29;20055;-77
2022/09/06 03:46:23;;;;;;;12.10;3.15;;;21.50;99.90;;;;;;4953345;28;20054;-75
2022/09/06 03:48:50;;;;;;;8.45;2.58;;;21.50;99.90;;;;;;4956880;29;20054;-76
2022/09/06 03:51:17;;;;;;;10.43;2.63;;;21.40;99.90;;;;;;4957037;29;20061;-75
2022/09/06 03:53:43;;;;;;;8.30;2.63;;;21.50;99.90;;;;;;4956834;29;20138;-77
2022/09/06 03:56:10;;;;;;;9.30;2.30;;;21.40;99.90;;;;;;4956416;28;20090;-77
2022/09/06 03:58:37;;;;;;;13.75;2.88;;;21.40;99.90;;;;;;4956544;29;20146;-77
2022/09/06 04:01:07;;;;;;;13.32;3.05;;;21.40;99.90;;;;;;4955496;29;20051;-75
2022/09/06 04:03:34;;;;;;;6.78;2.33;;;21.40;99.90;;;;;;4954577;29;20047;-75
2022/09/06 04:06:02;;;;;;;13.93;3.45;;;21.30;99.90;;;;;;4956280;28;20123;-77
2022/09/06 04:08:29;;;;;;;14.00;3.38;;;21.30;99.90;;;;;;4939217;29;20134;-76
2022/09/06 04:10:57;;;;;;;10.27;2.58;;;21.30;99.90;;;;;;4956615;29;20138;-77
2022/09/06 04:13:25;;;;;;;9.60;2.80;;;21.30;99.90;;;;;;4955019;29;20051;-75
2022/09/06 04:15:51;;;;;;;10.75;2.97;;;21.30;99.90;;;;;;4953437;28;20053;-75
2022/09/06 04:18:19;;;;;;;12.93;2.92;;;21.30;99.90;;;;;;4956256;29;20138;-77
2022/09/06 04:20:54;;;;;;;14.43;3.45;;;21.20;99.90;;;;;;4939036;29;20043;-75
2022/09/06 04:23:22;;;;;;;12.93;3.42;;;21.20;99.90;;;;;;4956201;29;20050;-78
2022/09/06 04:25:52;;;;;;;10.93;2.75;;;21.20;99.90;;;;;;4955946;28;20134;-77
2022/09/06 04:28:20;;;;;;;12.73;2.65;;;21.20;99.90;;;;;;4938765;29;20134;-77
2022/09/06 04:30:55;;;;;;;9.25;2.50;;;21.10;99.90;;;;;;4939202;29;20568;-75
2022/09/06 04:33:27;;;;;;;14.23;2.93;;;21.10;99.90;;;;;;4955131;29;20079;-77
2022/09/06 04:35:56;;;;;;;7.90;2.33;;;21.10;99.90;;;;;;4955913;28;20377;-77
2022/09/06 04:38:24;;;;;;;11.93;2.78;;;21.10;99.90;;;;;;4955559;29;20465;-77
2022/09/06 04:40:51;;;;;;;10.80;2.78;;;21.00;99.90;;;;;;4955626;29;20501;-77
2022/09/06 04:43:17;;;;;;;10.18;2.70;;;21.00;99.90;;;;;;4953000;29;20047;-78
2022/09/06 04:45:44;;;;;;;11.18;3.03;;;21.00;99.90;;;;;;4954759;29;20054;-77
2022/09/06 04:48:11;;;;;;;9.10;2.40;;;21.00;99.90;;;;;;4955876;29;20078;-78
2022/09/06 04:50:38;;;;;;;13.20;2.92;;;21.00;99.90;;;;;;4955689;29;20454;-78
2022/09/06 04:53:05;;;;;;;13.35;3.05;;;21.00;99.90;;;;;;4954493;29;20141;-78
2022/09/06 04:55:33;;;;;;;9.90;2.35;;;21.00;99.90;;;;;;4955771;28;20593;-77
2022/09/06 04:58:00;;;;;;;12.15;2.80;;;21.00;99.90;;;;;;4955292;28;20134;-77
2022/09/06 05:00:27;;;;;;;15.73;3.53;;;21.00;99.90;;;;;;4955451;29;20151;-77
2022/09/06 05:02:54;;;;;;;10.77;2.75;;;21.00;99.90;;;;;;4955844;29;20086;-77
2022/09/06 05:05:23;;;;;;;15.77;3.30;;;20.90;99.90;;;;;;4938454;29;20075;-77
2022/09/06 05:07:54;;;;;;;11.00;3.05;;;20.90;99.90;;;;;;4938643;29;20091;-78
2022/09/06 05:10:22;;;;;;;10.70;3.15;;;20.90;99.90;;;;;;4955279;29;20062;-78
2022/09/06 05:12:49;;;;;;;5.93;2.67;;;20.90;99.90;;;;;;4938400;29;20098;-77
2022/09/06 05:15:17;;;;;;;17.38;3.55;;;20.90;99.90;;;;;;4938306;29;20154;-77
2022/09/06 05:17:44;;;;;;;9.02;3.00;;;20.90;99.90;;;;;;4938512;29;20079;-77
2022/09/06 05:20:11;;;;;;;10.93;3.03;;;20.90;99.90;;;;;;4955129;28;20086;-77
2022/09/06 05:22:39;;;;;;;10.32;3.10;;;20.80;99.90;;;;;;4955120;29;20078;-77
2022/09/06 05:25:07;;;;;;;13.80;3.17;;;20.90;99.90;;;;;;4955337;28;20061;-77
2022/09/06 05:27:34;;;;;;;12.70;4.07;;;20.80;99.90;;;;;;4955462;29;20090;-77
2022/09/06 05:30:02;;;;;;;14.30;3.90;;;20.80;99.90;;;;;;4953689;29;20096;-77
2022/09/06 05:32:29;;;;;;;11.90;3.17;;;20.80;99.90;;;;;;4955384;29;20121;-77
2022/09/06 05:34:56;;;;;;;10.60;2.78;;;20.80;99.90;;;;;;4955232;28;20134;-77
2022/09/06 05:37:23;;;;;;;8.82;3.08;;;20.90;99.90;;;;;;4955305;29;20146;-77
2022/09/06 05:39:49;;;;;;;9.43;2.90;;;20.90;99.90;;;;;;4954616;29;20051;-77
2022/09/06 05:42:16;;;;;;;12.93;2.70;;;21.00;99.90;;;;;;4952414;29;20524;-77
2022/09/06 05:44:45;;;;;;;10.52;2.92;;;21.00;99.90;;;;;;4955097;28;20083;-77
2022/09/06 05:47:12;;;;;;;14.93;3.00;;;21.10;99.90;;;;;;4954675;29;20051;-77
2022/09/06 05:49:39;;;;;;;9.10;2.72;;;21.20;99.90;;;;;;4953372;29;20497;-77
2022/09/06 05:52:05;;;;;;;10.57;3.10;;;21.20;99.90;;;;;;4953128;29;20432;-77
2022/09/06 05:54:32;;;;;;;9.02;2.83;;;21.30;99.90;;;;;;4954813;28;20093;-77
2022/09/06 05:56:59;;;;;;;11.73;3.85;;;21.40;99.90;;;;;;4954901;29;20079;-77
2022/09/06 05:59:25;;;;;;;13.93;3.35;;;21.40;99.90;;;;;;4937527;29;20061;-77
2022/09/06 06:01:53;;;;;;;8.10;2.97;;;21.50;99.90;;;;;;4954501;29;20047;-77
2022/09/06 06:04:21;;;;;;;10.25;2.72;;;21.60;99.90;;;;;;4954382;28;20054;-76
2022/09/06 06:06:48;;;;;;;13.23;3.70;;;21.70;99.90;;;;;;4954466;29;20082;-77
2022/09/06 06:09:16;;;;;;;8.68;3.17;;;21.70;99.90;;;;;;4952130;28;20050;-77
2022/09/06 06:11:43;;;;;;;5.78;3.53;;;21.70;99.90;;;;;;4954314;29;20135;-77
2022/09/06 06:14:10;;;;;;;9.30;4.25;;;21.60;99.90;;;;;;4954375;29;20078;-78
2022/09/06 06:16:37;;;;;;;9.60;4.28;;;21.60;99.90;;;;;;4954011;28;20078;-77
2022/09/06 06:19:04;;;;;;;8.60;3.88;;;21.60;99.90;;;;;;4952678;29;20082;-77
2022/09/06 06:21:32;;;;;;;11.85;4.72;;;21.60;99.90;;;;;;4936610;29;20138;-77
2022/09/06 06:24:01;;;;;;;11.30;4.65;;;21.60;99.90;;;;;;4954309;29;20089;-77
2022/09/06 06:26:31;;;;;;;7.75;3.67;;;21.50;99.90;;;;;;4953995;28;20074;-77
2022/09/06 06:29:00;;;;;;;;;;;21.50;99.90;;;;;;4952108;29;20043;-77
2022/09/06 06:31:28;;;;;;;9.65;3.65;;;21.50;99.90;;;;;;4946048;29;19926;-77
2022/09/06 06:33:55;;;;;;;11.30;3.42;;;21.50;99.90;;;;;;4951962;29;20138;-77
2022/09/06 06:36:24;;;;;;;10.32;4.22;;;21.50;99.90;;;;;;4953723;28;20051;-77
2022/09/06 06:38:54;;;;;;;10.98;3.72;;;21.50;99.90;;;;;;4953733;29;20085;-77
2022/09/06 06:41:23;;;;;;;12.65;4.10;;;21.50;99.90;;;;;;4953501;29;20560;-77
2022/09/06 06:43:54;;;;;;;8.45;3.58;;;21.60;99.90;;;;;;4952557;29;20478;-77
2022/09/06 06:46:23;;;;;;;8.63;3.50;;;21.60;99.90;;;;;;4952929;28;20074;-77
2022/09/06 06:48:50;;;;;;;8.87;3.83;;;21.60;99.90;;;;;;4936129;29;20573;-77
2022/09/06 06:51:21;;;;;;;;;;;21.60;99.90;;;;;;4951369;29;20349;-77
2022/09/06 06:53:48;;;;;;;12.30;3.85;;;21.60;99.90;;;;;;4951972;29;20042;-78
2022/09/06 06:56:18;;;;;;;11.15;3.78;;;21.60;99.90;;;;;;4950787;29;20082;-78
2022/09/06 06:58:47;;;;;;;13.32;4.05;;;21.60;99.90;;;;;;4950533;29;20138;-77
2022/09/06 07:01:15;;;;;;;9.95;4.13;;;21.70;99.90;;;;;;4935444;29;20437;-77
2022/09/06 07:03:42;;;;;;;5.93;3.25;;;21.70;99.90;;;;;;4951751;29;20055;-77
2022/09/06 07:06:09;;;;;;;16.38;4.03;;;21.70;99.90;;;;;;4950117;28;20135;-77
2022/09/06 07:08:37;;;;;;;5.93;3.15;;;21.80;99.90;;;;;;4952604;29;20509;-77
2022/09/06 07:11:05;;;;;;;10.63;3.50;;;21.80;99.90;;;;;;4951297;29;20544;-77
2022/09/06 07:13:33;;;;;;;8.43;3.10;;;21.90;99.90;;;;;;4952569;29;20081;-78
2022/09/06 07:16:06;;;;;;;;;;;22.00;99.90;;;;;;4933932;29;20097;-77
2022/09/06 07:18:33;;;;;;;9.20;3.40;;;22.00;99.90;;;;;;4949969;29;19926;-77
2022/09/06 07:21:00;;;;;;;9.90;3.65;;;22.10;99.90;;;;;;4948054;29;20150;-77
2022/09/06 07:23:47;;;;;;;11.23;2.90;;;22.20;99.90;;;;;;4952980;29;20058;-77
2022/09/06 07:26:35;;;;;;;13.23;4.10;;;22.20;99.90;;;;;;4952929;28;20047;-77
2022/09/06 07:29:03;;;;;;;10.65;5.20;;;22.00;99.90;;;;;;4935213;29;20047;-77
2022/09/06 07:31:31;;;;;;;14.00;5.88;;;21.90;99.90;;;;;;4953158;29;20086;-77
2022/09/06 07:34:18;;;;;;;11.63;4.78;;;21.90;99.90;;;;;;4952692;28;20134;-77
2022/09/06 07:36:44;;;;;;;10.07;4.20;;;21.80;99.90;;;;;;4952947;29;20075;-77
2022/09/06 07:39:11;;;;;;;11.05;4.30;;;21.90;99.90;;;;;;4935751;29;20059;-77
2022/09/06 07:41:38;;;;;;;8.57;4.40;;;21.90;99.90;;;;;;4951751;29;20081;-77
2022/09/06 07:44:05;;;;;;;13.25;4.47;;;21.90;99.90;;;;;;4953103;29;20093;-77
2022/09/06 07:46:31;;;;;;;13.30;5.38;;;21.90;99.90;;;;;;4951859;28;20090;-77
2022/09/06 07:48:58;;;;;;;8.52;4.20;;;21.90;99.90;;;;;;4953084;29;20052;-78
2022/09/06 07:51:25;;;;;;;10.00;4.40;;;22.00;99.90;;;;;;4951916;29;20127;-78
2022/09/06 07:53:54;;;;;;;12.02;4.40;;;22.00;99.90;;;;;;4952002;29;20047;-77
2022/09/06 07:56:39;;;;;;;19.48;5.00;;;22.00;99.90;;;;;;4951967;29;20055;-77
2022/09/06 07:59:05;;;;;;;12.10;4.47;;;22.00;99.90;;;;;;4951516;29;20043;-77
2022/09/06 08:01:33;;;;;;;20.15;4.90;;;22.10;99.90;;;;;;4952614;29;20535;-77
2022/09/06 08:04:05;;;;;;;14.05;4.15;;;22.20;99.90;;;;;;4950693;29;20055;-77
2022/09/06 08:06:34;;;;;;;12.15;4.00;;;22.20;99.90;;;;;;4952765;28;20485;-77
2022/09/06 08:09:21;;;;;;;9.30;3.20;;;22.30;99.90;;;;;;4952863;29;20051;-77
2022/09/06 08:11:49;;;;;;;13.18;3.38;;;22.40;99.90;;;;;;4952853;29;20054;-77
2022/09/06 08:14:16;;;;;;;8.02;3.22;;;22.60;99.90;;;;;;4950742;28;20090;-77
2022/09/06 08:16:43;;;;;;;9.23;3.03;;;22.70;99.90;;;;;;4952943;29;20691;-77
2022/09/06 08:19:11;;;;;;;9.73;3.13;;;22.80;99.90;;;;;;4952375;29;20498;-77
2022/09/06 08:21:38;;;;;;;10.57;3.33;;;22.90;99.90;;;;;;4952589;29;20051;-77
2022/09/06 08:24:07;;;;;;;11.75;3.08;;;23.00;99.90;;;;;;4935506;29;20183;-77
2022/09/06 08:26:38;;;;;;;13.25;4.13;;;23.00;99.90;;;;;;4952523;28;20086;-77
2022/09/06 08:29:07;;;;;;;13.32;3.15;;;23.10;99.90;;;;;;4952397;29;20592;-77
2022/09/06 08:31:37;;;;;;;12.70;3.58;;;23.20;99.90;;;;;;4952523;29;20079;-77
2022/09/06 08:34:04;;;;;;;13.50;2.85;;;23.20;99.90;;;;;;4955090;28;20055;-77
2022/09/06 08:36:32;;;;;;;10.43;2.75;;;23.20;99.90;;;;;;4937066;29;20409;-77
2022/09/06 08:39:01;;;;;;;10.32;3.22;;;23.20;99.90;;;;;;4954106;28;20067;-77
2022/09/06 08:42:05;;;;;;;9.13;2.95;;;23.20;99.90;;;;;;4939754;29;20047;-77
2022/09/06 08:44:39;;;;;;;9.55;3.17;;;23.20;99.90;;;;;;4951578;29;20153;-76
2022/09/06 08:47:23;;;;;;;12.98;2.80;;;23.10;99.90;;;;;;4938655;29;20138;-76
2022/09/06 08:49:59;;;;;;;11.65;2.83;;;23.10;99.90;;;;;;4950539;29;20572;-77
2022/09/06 08:52:41;;;;;;;10.10;2.72;;;23.10;99.90;;;;;;4952494;29;20047;-77
2022/09/06 08:55:57;;;;;;;7.38;2.50;;;23.20;99.90;;;;;;4950024;29;20043;-76
2022/09/06 08:58:43;;;;;;;10.02;2.92;;;23.30;99.90;;;;;;4951124;29;20078;-77
2022/09/06 09:01:24;;;;;;;12.35;2.55;;;23.40;99.90;;;;;;4952736;29;20143;-77
2022/09/06 09:03:53;;;;;;;9.70;2.53;;;23.50;99.90;;;;;;4951019;28;20094;-78
2022/09/06 09:06:22;;;;;;;11.50;2.70;;;23.60;99.90;;;;;;4955011;28;20284;-77
2022/09/06 09:08:58;;;;;;;10.35;2.53;;;23.70;99.90;;;;;;4954089;29;20126;-77
2022/09/06 09:11:24;;;;;;;8.50;2.90;;;23.80;99.90;;;;;;4954008;29;20730;-77
2022/09/06 09:14:06;;;;;;;8.30;2.47;;;23.80;99.90;;;;;;4939030;29;20093;-76
2022/09/06 09:16:33;;;;;;;10.52;2.47;;;23.90;99.90;;;;;;4954942;29;20479;-75
2022/09/06 09:19:04;;;;;;;5.88;2.30;;;23.90;99.90;;;;;;4955873;29;20134;-77
2022/09/06 09:21:37;;;;;;;6.43;2.22;;;23.90;99.90;;;;;;4938093;29;20134;-77
2022/09/06 09:24:06;;;;;;;6.20;2.05;;;23.90;99.90;;;;;;4953727;29;20094;-77
2022/09/06 09:26:48;;;;;;;5.20;1.77;;;23.90;99.90;;;;;;4951975;28;20079;-77
2022/09/06 09:29:15;;;;;;;6.80;2.50;;;23.90;99.90;;;;;;4954757;29;20091;-77
2022/09/06 09:31:48;;;;;;;4.68;2.35;;;23.90;99.90;;;;;;4954101;29;20075;-77
2022/09/06 09:34:36;;;;;;;6.30;1.83;;;23.80;99.90;;;;;;4953415;28;20063;-77
2022/09/06 09:37:19;;;;;;;8.38;2.05;;;23.80;99.90;;;;;;4953012;29;20078;-77
2022/09/06 09:40:16;;;;;;;6.97;1.83;;;23.80;99.90;;;;;;4952902;29;20134;-77
2022/09/06 09:42:43;;;;;;;7.68;2.05;;;23.80;99.90;;;;;;4950852;29;20043;-78
2022/09/06 09:45:19;;;;;;;4.68;1.80;;;23.90;99.90;;;;;;4949853;28;20079;-77
2022/09/06 09:47:46;;;;;;;9.38;2.78;;;24.00;99.90;;;;;;4947684;28;20066;-77
2022/09/06 09:50:24;;;;;;;8.63;2.53;;;24.10;99.90;;;;;;4950770;29;20130;-77
2022/09/06 09:52:51;;;;;;;6.03;2.22;;;24.20;99.90;;;;;;4936486;29;20137;-77
2022/09/06 09:55:25;;;;;;;10.95;2.00;;;24.30;99.90;;;;;;4953351;28;20190;-77
2022/09/06 09:57:53;;;;;;;8.13;2.53;;;24.40;99.90;;;;;;4950780;29;20574;-77
2022/09/06 10:00:35;;;;;;;11.10;2.85;;;24.40;99.90;;;;;;4950797;29;20182;-76
2022/09/06 10:03:12;;;;;;;9.95;3.03;;;24.50;99.90;;;;;;4950228;29;20051;-76
2022/09/06 10:05:40;;;;;;;4.40;2.25;;;24.70;99.90;;;;;;4950620;28;20050;-76
2022/09/06 10:08:11;;;;;;;9.05;2.40;;;24.80;99.90;;;;;;4951068;29;20123;-77
2022/09/06 10:10:42;;;;;;;7.13;2.55;;;24.90;99.90;;;;;;4954050;29;20051;-77
2022/09/06 10:13:30;;;;;;;10.65;3.03;;;24.90;99.90;;;;;;4952744;29;20059;-77
2022/09/06 10:15:59;;;;;;;8.95;2.70;;;25.00;99.90;;;;;;4937000;29;20476;-77
2022/09/06 10:18:35;;;;;;;6.07;2.40;;;25.10;99.90;;;;;;4952400;29;20047;-78
2022/09/06 10:21:08;;;;;;;8.15;2.80;;;25.10;99.90;;;;;;4953994;28;20050;-75
2022/09/06 10:23:45;;;;;;;11.80;2.35;;;25.20;99.90;;;;;;4948577;28;20058;-75
2022/09/06 10:26:44;;;;;;;9.55;2.10;;;25.30;99.90;;;;;;4950157;28;20047;-75
2022/09/06 10:29:13;;;;;;;7.60;2.33;;;25.30;99.90;;;;;;4951549;28;20082;-76
2022/09/06 10:31:58;;;;;;;6.57;2.80;;;25.40;99.90;;;;;;4949585;29;20145;-75
2022/09/06 10:34:46;;;;;;;9.82;3.20;;;25.50;99.90;;;;;;4954969;28;20043;-76
2022/09/06 10:37:40;;;;;;;9.75;3.40;;;25.50;99.90;;;;;;4934764;29;20446;-76
2022/09/06 10:40:10;;;;;;;8.05;2.33;;;25.50;99.90;;;;;;4935755;29;20142;-76
2022/09/06 10:42:49;;;;;;;9.88;2.72;;;25.60;99.90;;;;;;4951382;29;20043;-76
2022/09/06 10:45:26;;;;;;;11.57;3.35;;;25.70;99.90;;;;;;4952022;28;20126;-77
2022/09/06 10:48:01;;;;;;;8.43;3.45;;;25.70;99.90;;;;;;4951817;29;20055;-76
2022/09/06 10:50:34;;;;;;;9.63;2.78;;;25.90;99.90;;;;;;4950474;29;20078;-76
2022/09/06 10:53:26;;;;;;;8.45;2.63;;;26.00;99.90;;;;;;4950942;29;20131;-76
2022/09/06 10:56:03;;;;;;;5.95;2.67;;;26.00;99.90;;;;;;4951271;28;20083;-76
2022/09/06 10:58:37;;;;;;;10.02;2.70;;;26.10;99.90;;;;;;4951765;29;20053;-76
2022/09/06 11:01:37;;;;;;;7.70;2.42;;;26.10;99.90;;;;;;4951073;28;20420;-76
2022/09/06 11:04:10;;;;;;;7.65;2.95;;;26.10;99.90;;;;;;4950857;28;20047;-76
2022/09/06 11:06:46;;;;;;;9.60;2.88;;;26.20;99.90;;;;;;4951037;28;20055;-79
2022/09/06 11:09:29;;;;;;;8.10;2.80;;;26.20;99.90;;;;;;4936126;29;20054;-78
2022/09/06 11:12:36;;;;;;;6.63;2.30;;;26.20;99.90;;;;;;4954842;28;20059;-77
2022/09/06 11:15:05;;;;;;;7.72;3.10;;;26.20;99.90;;;;;;4952495;28;20578;-77
2022/09/06 11:17:47;;;;;;;7.68;3.08;;;26.20;99.90;;;;;;4953198;29;20159;-77
2022/09/06 11:20:44;;;;;;;9.32;2.35;;;26.20;99.90;;;;;;4952089;29;20078;-77
2022/09/06 11:23:33;;;;;;;4.78;2.55;;;26.10;99.90;;;;;;4936158;29;20074;-77
2022/09/06 11:26:35;;;;;;;9.90;2.75;;;26.10;99.90;;;;;;4953058;28;20480;-77
2022/09/06 11:29:08;;;;;;;6.70;3.20;;;26.00;99.90;;;;;;4952619;29;20055;-77
2022/09/06 11:32:03;;;;;;;11.40;3.33;;;26.00;99.90;;;;;;4952905;29;20501;-78
2022/09/06 11:34:54;;;;;;;7.38;2.35;;;26.00;99.90;;;;;;4952743;28;20058;-78
2022/09/06 11:37:29;;;;;;;9.32;2.15;;;25.90;99.90;;;;;;4953045;29;20134;-78
2022/09/06 11:40:25;;;;;;;8.52;2.20;;;25.90;99.90;;;;;;4950437;29;20101;-77
2022/09/06 11:42:54;;;;;;;6.47;2.00;;;25.80;99.90;;;;;;4953145;29;20062;-77
2022/09/06 11:45:44;;;;;;;8.18;2.40;;;25.70;99.90;;;;;;4952873;28;20170;-77
2022/09/06 11:48:32;;;;;;;7.20;2.33;;;25.60;99.90;;;;;;4952683;29;20570;-77
2022/09/06 11:51:11;;;;;;;8.05;2.40;;;25.50;99.90;;;;;;4952592;29;20094;-77
2022/09/06 11:54:05;;;;;;;9.70;2.53;;;25.50;99.90;;;;;;4934341;29;20170;-77
2022/09/06 11:56:41;;;;;;;9.30;2.88;;;25.40;99.90;;;;;;4949154;28;20537;-77
2022/09/06 11:59:20;;;;;;;6.32;2.17;;;25.30;99.90;;;;;;4951145;28;20130;-76
2022/09/06 12:02:25;;;;;;;13.75;3.25;;;25.30;99.90;;;;;;4951628;29;20084;-78
2022/09/06 12:04:58;;;;;;;13.05;2.85;;;25.30;99.90;;;;;;4951834;28;20051;-77
2022/09/06 12:07:27;;;;;;;10.98;2.90;;;25.30;99.90;;;;;;4951890;28;20053;-77
2022/09/06 12:09:54;;;;;;;6.88;2.78;;;25.30;99.90;;;;;;4956363;29;20165;-77
2022/09/06 12:12:39;;;;;;;9.32;2.83;;;25.20;99.90;;;;;;4954451;29;20500;-78
2022/09/06 12:15:29;;;;;;;9.23;3.25;;;25.20;99.90;;;;;;4954188;28;20047;-83
2022/09/06 12:17:57;;;;;;;;;;;25.10;99.90;;;;;;4937079;29;20624;-80
2022/09/06 12:20:46;;;;;;;8.80;2.20;;;25.20;99.90;;;;;;4939758;29;20036;-77
2022/09/06 12:23:34;;;;;;;8.00;2.38;;;25.20;99.90;;;;;;4951870;28;20074;-76
2022/09/06 12:26:09;;;;;;;6.85;2.00;;;25.30;99.90;;;;;;4949829;28;20134;-76
2022/09/06 12:28:50;;;;;;;6.88;2.47;;;25.30;99.90;;;;;;4954775;29;20133;-76
2022/09/06 12:31:31;;;;;;;10.68;2.53;;;25.30;99.90;;;;;;4938773;29;20047;-76
2022/09/06 12:34:18;;;;;;;3.85;1.90;;;25.40;99.90;;;;;;4954714;29;20544;-76
2022/09/06 12:36:52;;;;;;;6.68;2.10;;;25.50;99.90;;;;;;4955235;29;20153;-76
2022/09/06 12:39:20;;;;;;;6.90;1.98;;;25.50;99.90;;;;;;4953833;29;20145;-76
2022/09/06 12:41:56;;;;;;;7.53;2.00;;;25.60;99.90;;;;;;4954870;29;20417;-76
2022/09/06 12:44:33;;;;;;;7.88;2.42;;;25.70;99.90;;;;;;4954093;28;20079;-76
2022/09/06 12:47:11;;;;;;;8.75;1.85;;;25.80;99.90;;;;;;4938900;29;20055;-76
2022/09/06 12:49:37;;;;;;;9.82;2.45;;;26.00;99.90;;;;;;4953703;29;20134;-76
2022/09/06 12:52:11;;;;;;;6.25;1.55;;;26.10;99.90;;;;;;4955508;29;20106;-76
2022/09/06 12:54:56;;;;;;;7.43;1.95;;;26.20;99.90;;;;;;4958040;28;20458;-77
2022/09/06 12:57:25;;;;;;;6.88;2.20;;;26.30;99.90;;;;;;4955673;29;20143;-77
2022/09/06 12:59:56;;;;;;;7.60;1.97;;;26.40;99.90;;;;;;4954708;29;20134;-77
2022/09/06 13:02:30;;;;;;;5.53;2.17;;;26.50;99.90;;;;;;4955634;29;20366;-77
2022/09/06 13:05:10;;;;;;;7.50;2.25;;;26.60;99.90;;;;;;4951335;29;20134;-77
2022/09/06 13:07:44;;;;;;;9.00;2.35;;;26.70;99.90;;;;;;4955692;29;20051;-77
2022/09/06 13:10:15;;;;;;;7.40;2.17;;;26.70;99.90;;;;;;4955368;29;20074;-77
2022/09/06 13:12:44;;;;;;;17.63;3.70;;;26.80;99.90;;;;;;4955675;29;20127;-76
2022/09/06 13:15:21;;;;;;;6.32;1.75;;;26.80;99.90;;;;;;4955807;28;20078;-78
2022/09/06 13:17:47;;;;;;;7.18;2.20;;;26.90;99.90;;;;;;4956878;29;20130;-78